L'Hospitalet de Llobregat, Spain
Current Conditions -  °F | °C
As of 9:30 AM on Wednesday 22 Oct 2014 (Local Time) from LEBL Reporting Station
Few Clouds Few Clouds  
Wind Chill: 64°   Ceiling: Unl
Heat Index: 64°   Visibility: 6mi
Dew Point: 50°   Wind: 12mph
Humidity: 59%   Direction: 330°NNW
Pressure: 30.15"   Gusts: NA
Location:  41.36°N, 2.1°E
Report Text: LEBL 220730Z 33010KT 300V010 9999 FEW025 18/10 Q1021 NOSIG
Loading
Personal Weather Stations






























Interactive Weather Map
Tropical Storm Tracking
New forecast layout! Learn more

10-Day Weather Forecast

Advertisements
Track Severe Weather on mobile